Aérodrome :
LOGIN :

S'inscrire | Disclaimer

   EN    FR    IT 

 










Légende :    VFR   VFR Marginal   IFR   IFR Intensif   IFR Très Intensif
Visi : 
Plafond : 
>= 8 km
>= 3000ft
5 à 8 km
1000 à 3000 ft
1500m à 5 km
500 à 1000 ft
800 à 1500m
200 à 500 ft
< 800m
< 200 ft
Symboles :   Orages  Brouillard  Fortes neiges  Fortes précipitations  Vent > 20 kt
SIGMETs :   Divers  Orages  Givrage  Turbulence  Onde Orograph.  Cendres Volcan.






- Altitude de l'aérodrome : 65 ft
- Code IATA : PIK


EGPK - Glasgow Prestwick

DERNIER METAR :
  • 150150Z 25011KT 9999 SCT025 05/01 Q0978

METARs EXPIRÉS :
  • 150050Z 23010KT 9999 SCT025 05/01 Q0978
  • 142350Z 23014KT 9999 SCT025 05/01 Q0978

TAF TAF EGPK
Valide du 15 à 00h jusqu'au 16 à 00h UTC


142302Z 1500/1524 22019KT 9999 FEW015 SCT025
TEMPO 1500/1513 6000 RA SHRA BKN012
PROB40
TEMPO 1500/1503 22022G32KT
PROB30
TEMPO 1500/1509 4000 +SHRA BKN008
BECMG 1502/1504 25009KT
PROB40
TEMPO 1503/1515 25015G25KT
BECMG 1516/1519 19010KT



MET'MAP, la Météo Aéronautique d'un coup d'oeil ! - Copyright ORBIFLY Décembre 2007 - Disclaimer

ORBIFLY MET'MAP TEAM :

Programmation & Développement : Alexandra Zaïnal
Sur une idée originale de : Baudouin d'Aumeries
Assistance à la programmation : Marc-Olivier Méhu
Soutien technique & logistique : Manuel Goepfert

Contact : metmap@orbifly.com




SOURCES & CREDITS :

   NOAA